createdAt,value
2023-07-24T00:02:12.130Z,8.73
2023-07-24T00:04:41.676Z,8.27
2023-07-24T00:07:09.956Z,8.30
2023-07-24T00:09:38.174Z,8.90
2023-07-24T00:12:07.918Z,8.80
2023-07-24T00:14:36.354Z,8.37
2023-07-24T00:17:04.730Z,8.97
2023-07-24T00:19:32.979Z,8.47
2023-07-24T00:22:02.772Z,8.73
2023-07-24T00:24:33.055Z,8.60
2023-07-24T00:27:01.222Z,8.47
2023-07-24T00:29:29.338Z,8.53
2023-07-24T00:31:57.491Z,8.63
2023-07-24T00:34:28.388Z,8.63
2023-07-24T00:36:57.760Z,8.50
2023-07-24T00:39:29.416Z,8.53
2023-07-24T00:41:58.919Z,8.70
2023-07-24T00:44:27.051Z,8.73
2023-07-24T00:46:56.611Z,8.43
2023-07-24T00:49:24.954Z,8.67
2023-07-24T00:51:54.684Z,8.50
2023-07-24T00:54:24.593Z,8.70
2023-07-24T00:56:54.104Z,8.30
2023-07-24T00:59:23.243Z,8.80
2023-07-24T01:01:51.735Z,8.50
2023-07-24T01:04:20.632Z,8.77
2023-07-24T01:06:48.854Z,8.43
2023-07-24T01:09:17.185Z,8.40
2023-07-24T01:11:49.855Z,8.43
2023-07-24T01:14:25.605Z,8.70
2023-07-24T01:16:58.086Z,8.40
2023-07-24T01:19:39.451Z,8.70
2023-07-24T01:22:17.702Z,8.30
2023-07-24T01:25:03.116Z,8.40
2023-07-24T01:27:32.651Z,8.80
2023-07-24T01:30:00.842Z,8.40
2023-07-24T01:32:29.137Z,8.87
2023-07-24T01:34:57.438Z,8.60
2023-07-24T01:37:27.812Z,8.50
2023-07-24T01:39:57.534Z,9.10
2023-07-24T01:42:26.715Z,8.50
2023-07-24T01:44:57.235Z,8.30
2023-07-24T01:47:25.566Z,8.70
2023-07-24T01:49:53.743Z,8.33
2023-07-24T01:52:21.996Z,8.87
2023-07-24T01:54:50.493Z,9.00
2023-07-24T01:57:18.739Z,8.60
2023-07-24T01:59:46.937Z,8.53
2023-07-24T02:02:16.505Z,8.50
2023-07-24T02:04:44.856Z,8.77
2023-07-24T02:07:12.985Z,8.70
2023-07-24T02:09:41.118Z,8.90
2023-07-24T02:12:09.492Z,8.50
2023-07-24T02:14:37.984Z,8.70
2023-07-24T02:17:06.486Z,8.73
2023-07-24T02:19:35.964Z,8.80
2023-07-24T02:22:04.355Z,8.73
2023-07-24T02:24:37.273Z,8.70
2023-07-24T02:27:07.128Z,8.80
2023-07-24T02:29:36.894Z,8.40
2023-07-24T02:32:05.877Z,8.50
2023-07-24T02:34:35.331Z,8.57
2023-07-24T02:37:03.460Z,8.87
2023-07-24T02:39:31.619Z,8.50
2023-07-24T02:41:59.759Z,8.70
2023-07-24T02:44:27.887Z,8.63
2023-07-24T02:46:56.241Z,8.47
2023-07-24T02:49:24.645Z,8.53
2023-07-24T02:51:54.218Z,8.60
2023-07-24T02:54:22.490Z,8.87
2023-07-24T02:56:50.613Z,8.57
2023-07-24T02:59:18.725Z,8.70
2023-07-24T03:01:46.909Z,8.60
2023-07-24T03:04:15.016Z,8.43
2023-07-24T03:06:43.183Z,8.83
2023-07-24T03:09:12.640Z,8.80
2023-07-24T03:11:40.760Z,9.10
2023-07-24T03:14:09.361Z,8.60
2023-07-24T03:16:37.473Z,8.73
2023-07-24T03:19:05.622Z,8.77
2023-07-24T03:21:34.210Z,8.77
2023-07-24T03:24:03.020Z,8.67
2023-07-24T03:26:32.679Z,8.77
2023-07-24T03:29:02.286Z,8.80
2023-07-24T03:31:30.448Z,8.80
2023-07-24T03:33:58.631Z,8.80
2023-07-24T03:36:26.848Z,8.90
2023-07-24T03:38:55.629Z,8.90
2023-07-24T03:41:23.815Z,9.10
2023-07-24T03:43:53.328Z,8.70
2023-07-24T03:46:21.478Z,8.80
2023-07-24T03:48:50.943Z,8.80
2023-07-24T03:51:19.207Z,9.10
2023-07-24T03:53:47.397Z,8.80
2023-07-24T03:56:15.530Z,8.70
2023-07-24T03:58:43.718Z,9.00
2023-07-24T04:01:13.256Z,9.20
2023-07-24T04:03:41.559Z,9.00
2023-07-24T04:06:10.855Z,9.10
2023-07-24T04:08:38.969Z,8.70
2023-07-24T04:11:07.187Z,8.70
2023-07-24T04:13:35.294Z,8.80
2023-07-24T04:16:03.493Z,8.20
2023-07-24T04:18:33.078Z,9.00
2023-07-24T04:21:01.256Z,9.10
2023-07-24T04:23:29.384Z,9.00
2023-07-24T04:25:57.526Z,9.00
2023-07-24T04:28:25.654Z,9.10
2023-07-24T04:30:53.814Z,8.77
2023-07-24T04:33:21.953Z,8.90
2023-07-24T04:35:51.687Z,8.77
2023-07-24T04:38:19.797Z,8.80
2023-07-24T04:40:47.913Z,8.87
2023-07-24T04:43:16.230Z,8.90
2023-07-24T04:45:44.368Z,8.83
2023-07-24T04:48:12.534Z,8.80
2023-07-24T04:50:40.693Z,9.10
2023-07-24T04:53:10.142Z,8.83
2023-07-24T04:55:38.278Z,8.83
2023-07-24T04:58:06.393Z,8.93
2023-07-24T05:00:34.495Z,9.00
2023-07-24T05:03:02.657Z,8.90
2023-07-24T05:05:32.587Z,9.03
2023-07-24T05:08:00.806Z,8.63
2023-07-24T05:10:30.276Z,9.23
2023-07-24T05:12:58.400Z,8.80
2023-07-24T05:15:26.498Z,8.80
2023-07-24T05:17:54.663Z,8.80
2023-07-24T05:20:22.898Z,9.00
2023-07-24T05:22:51.014Z,9.00
2023-07-24T05:25:19.194Z,8.93
2023-07-24T05:27:48.659Z,8.60
2023-07-24T05:30:16.998Z,9.07
2023-07-24T05:32:45.151Z,9.10
2023-07-24T05:35:13.308Z,9.10
2023-07-24T05:37:41.428Z,9.10
2023-07-24T05:40:10.902Z,9.27
2023-07-24T05:42:42.621Z,9.30
2023-07-24T05:45:13.115Z,8.80
2023-07-24T05:47:41.295Z,8.90
2023-07-24T05:50:10.298Z,9.30
2023-07-24T05:52:38.452Z,8.90
2023-07-24T05:55:07.532Z,8.90
2023-07-24T05:57:35.661Z,8.87
2023-07-24T06:00:04.422Z,9.23
2023-07-24T06:02:40.864Z,8.90
2023-07-24T06:05:10.073Z,8.80
2023-07-24T06:07:38.196Z,8.87
2023-07-24T06:10:07.407Z,8.90
2023-07-24T06:12:35.616Z,8.93
2023-07-24T06:15:04.410Z,9.00
2023-07-24T06:17:32.631Z,8.87
2023-07-24T06:20:02.097Z,9.03
2023-07-24T06:22:30.270Z,8.67
2023-07-24T06:24:58.385Z,9.17
2023-07-24T06:27:26.530Z,8.63
2023-07-24T06:29:56.119Z,8.90
2023-07-24T06:32:33.453Z,9.23
2023-07-24T06:35:02.977Z,8.97
2023-07-24T06:37:31.111Z,9.00
2023-07-24T06:39:59.242Z,9.20
2023-07-24T06:42:27.472Z,8.97
2023-07-24T06:44:55.593Z,9.47
2023-07-24T06:47:23.861Z,9.23
2023-07-24T06:49:52.016Z,9.27
2023-07-24T06:52:21.531Z,9.03
2023-07-24T06:54:49.790Z,9.30
2023-07-24T06:57:17.980Z,9.50
2023-07-24T06:59:46.125Z,8.97
2023-07-24T07:02:14.244Z,9.40
2023-07-24T07:04:42.349Z,9.40
2023-07-24T07:07:11.258Z,9.23
2023-07-24T07:09:40.819Z,9.27
2023-07-24T07:12:09.886Z,9.20
2023-07-24T07:14:38.005Z,8.70
2023-07-24T07:17:06.523Z,9.37
2023-07-24T07:19:34.679Z,9.53
2023-07-24T07:22:02.791Z,9.17
2023-07-24T07:24:31.004Z,9.07
2023-07-24T07:27:00.581Z,9.93
2023-07-24T07:29:28.737Z,9.70
2023-07-24T07:31:56.854Z,10.10
2023-07-24T07:34:25.080Z,9.77
2023-07-24T07:36:53.207Z,9.80
2023-07-24T07:39:21.399Z,10.17
2023-07-24T07:41:49.515Z,10.17
2023-07-24T07:44:19.020Z,10.00
2023-07-24T07:46:47.334Z,10.90
2023-07-24T07:49:15.886Z,10.37
2023-07-24T07:51:44.010Z,10.40
2023-07-24T07:54:12.124Z,10.50
2023-07-24T07:56:40.264Z,10.80
2023-07-24T07:59:08.419Z,11.20
2023-07-24T08:01:40.323Z,10.97
2023-07-24T08:04:08.484Z,10.37
2023-07-24T08:06:36.583Z,10.40
2023-07-24T08:09:04.896Z,10.30
2023-07-24T08:11:33.105Z,10.23
2023-07-24T08:14:01.244Z,10.10
2023-07-24T08:16:29.757Z,9.73
2023-07-24T08:18:59.691Z,9.30
2023-07-24T08:21:27.808Z,9.43
2023-07-24T08:23:55.943Z,9.87
2023-07-24T08:26:25.634Z,9.40
2023-07-24T08:28:53.974Z,10.00
2023-07-24T08:31:22.307Z,9.70
2023-07-24T08:33:50.697Z,10.20
2023-07-24T08:36:20.173Z,9.70
2023-07-24T08:38:49.159Z,9.90
2023-07-24T08:41:17.441Z,10.00
2023-07-24T08:43:46.725Z,9.80
2023-07-24T08:46:14.960Z,10.47
2023-07-24T08:48:44.517Z,9.97
2023-07-24T08:51:15.305Z,10.13
2023-07-24T08:53:45.809Z,10.53
2023-07-24T08:56:15.363Z,9.80
2023-07-24T08:58:44.621Z,9.57
2023-07-24T09:01:12.867Z,9.20
2023-07-24T09:03:41.142Z,9.70
2023-07-24T09:06:09.682Z,9.97
2023-07-24T09:08:40.330Z,9.87
2023-07-24T09:11:12.024Z,9.70
2023-07-24T09:13:44.443Z,9.97
2023-07-24T09:16:24.273Z,10.30
2023-07-24T09:21:31.436Z,9.30
2023-07-24T09:24:00.222Z,9.97
2023-07-24T09:26:29.952Z,9.67
2023-07-24T09:28:58.323Z,10.10
2023-07-24T09:31:37.616Z,9.37
2023-07-24T09:34:05.851Z,9.73
2023-07-24T09:36:40.036Z,9.50
2023-07-24T09:39:11.726Z,9.83
2023-07-24T09:41:42.010Z,10.13
2023-07-24T09:44:10.214Z,9.50
2023-07-24T09:46:45.969Z,10.00
2023-07-24T09:49:16.728Z,9.70
2023-07-24T09:51:49.947Z,10.17
2023-07-24T09:54:26.753Z,9.30
2023-07-24T09:57:07.239Z,9.60
2023-07-24T09:59:44.431Z,9.60
2023-07-24T10:02:14.685Z,10.13
2023-07-24T10:04:43.967Z,10.00
2023-07-24T10:07:12.706Z,9.67
2023-07-24T10:09:41.917Z,9.50
2023-07-24T10:12:12.055Z,9.93
2023-07-24T10:14:40.558Z,9.80
2023-07-24T10:17:08.672Z,10.10
2023-07-24T10:19:44.070Z,10.40
2023-07-24T10:22:19.370Z,10.27
2023-07-24T10:24:47.751Z,10.03
2023-07-24T10:27:17.247Z,10.13
2023-07-24T10:29:48.148Z,9.60
2023-07-24T10:32:20.379Z,9.77
2023-07-24T10:35:00.397Z,10.00
2023-07-24T10:37:38.783Z,10.60
2023-07-24T10:40:08.770Z,10.57
2023-07-24T10:42:38.214Z,10.17
2023-07-24T10:45:11.538Z,10.40
2023-07-24T10:47:39.693Z,10.13
2023-07-24T10:50:09.698Z,10.50
2023-07-24T10:52:37.824Z,10.53
2023-07-24T10:55:07.322Z,10.57
2023-07-24T10:57:37.046Z,10.60
2023-07-24T11:00:06.263Z,11.00
2023-07-24T11:02:34.553Z,10.80
2023-07-24T11:05:02.826Z,10.40
2023-07-24T11:07:35.213Z,10.80
2023-07-24T11:10:03.703Z,10.10
2023-07-24T11:12:33.269Z,10.73
2023-07-24T11:15:02.800Z,10.80
2023-07-24T11:17:38.650Z,10.67
2023-07-24T11:20:12.092Z,10.13
2023-07-24T11:22:45.656Z,10.90
2023-07-24T11:25:14.006Z,10.30
2023-07-24T11:27:44.981Z,9.60
2023-07-24T11:30:15.183Z,10.90
2023-07-24T11:32:44.349Z,10.13
2023-07-24T11:35:13.157Z,10.50
2023-07-24T11:37:41.603Z,10.13
2023-07-24T11:40:13.715Z,10.03
2023-07-24T11:42:45.210Z,10.43
2023-07-24T11:45:14.915Z,9.80
2023-07-24T11:47:48.036Z,10.97
2023-07-24T11:50:17.936Z,11.00
2023-07-24T11:52:49.030Z,10.80
2023-07-24T11:55:19.361Z,10.60
2023-07-24T11:57:58.629Z,10.13
2023-07-24T12:00:29.137Z,10.33
2023-07-24T12:03:05.134Z,11.00
2023-07-24T12:05:41.656Z,10.23
2023-07-24T12:08:10.734Z,10.60
2023-07-24T12:10:41.002Z,10.90
2023-07-24T12:13:09.729Z,10.47
2023-07-24T12:15:39.717Z,10.53
2023-07-24T12:18:08.310Z,10.20
2023-07-24T12:20:37.030Z,10.17
2023-07-24T12:23:05.257Z,10.00
2023-07-24T12:25:33.459Z,9.20
2023-07-24T12:28:01.632Z,9.20
2023-07-24T12:30:29.843Z,8.97
2023-07-24T12:32:59.402Z,9.10
2023-07-24T12:35:27.616Z,9.50
2023-07-24T12:37:55.751Z,9.50
2023-07-24T12:40:24.104Z,9.17
2023-07-24T12:42:52.261Z,9.07
2023-07-24T12:45:20.556Z,9.17
2023-07-24T12:47:48.664Z,9.03
2023-07-24T12:50:18.711Z,9.10
2023-07-24T12:52:47.062Z,8.93
2023-07-24T12:55:15.717Z,8.97
2023-07-24T12:57:43.869Z,8.90
2023-07-24T13:00:13.417Z,8.60
2023-07-24T13:02:41.584Z,8.80
2023-07-24T13:05:10.465Z,8.57
2023-07-24T13:07:40.222Z,8.50
2023-07-24T13:10:10.474Z,8.50
2023-07-24T13:12:38.840Z,8.50
2023-07-24T13:15:08.793Z,8.30
2023-07-24T13:17:37.446Z,8.30
2023-07-24T13:20:07.598Z,8.30
2023-07-24T13:22:35.786Z,8.10
2023-07-24T13:25:05.916Z,8.40
2023-07-24T13:27:34.079Z,8.00
2023-07-24T13:30:02.207Z,8.07
2023-07-24T13:32:31.111Z,8.47
2023-07-24T13:35:01.009Z,8.03
2023-07-24T13:37:29.207Z,8.00
2023-07-24T13:39:57.328Z,8.30
2023-07-24T13:42:26.990Z,8.33
2023-07-24T13:44:55.155Z,8.43
2023-07-24T13:47:23.335Z,8.60
2023-07-24T13:49:51.542Z,8.43
2023-07-24T13:52:19.705Z,8.23
2023-07-24T13:54:47.856Z,8.20
2023-07-24T13:57:16.102Z,8.70
2023-07-24T13:59:45.590Z,8.60
2023-07-24T14:02:14.584Z,8.60
2023-07-24T14:04:42.813Z,8.80
2023-07-24T14:07:11.131Z,8.50
2023-07-24T14:09:40.338Z,9.30
2023-07-24T14:12:10.412Z,9.20
2023-07-24T14:14:38.564Z,8.90
2023-07-24T14:17:08.303Z,9.80
2023-07-24T14:19:36.472Z,9.30
2023-07-24T14:22:04.643Z,9.90
2023-07-24T14:24:32.814Z,9.60
2023-07-24T14:27:00.949Z,10.30
2023-07-24T14:29:29.083Z,10.37
2023-07-24T14:31:57.267Z,9.80
2023-07-24T14:34:26.760Z,10.27
2023-07-24T14:36:55.098Z,9.90
2023-07-24T14:39:23.283Z,10.50
2023-07-24T14:41:51.467Z,11.20
2023-07-24T14:44:19.853Z,10.40
2023-07-24T14:46:48.045Z,10.87
2023-07-24T14:49:16.225Z,10.70
2023-07-24T14:51:45.707Z,10.60
2023-07-24T14:54:13.831Z,10.50
2023-07-24T14:56:55.043Z,10.40
2023-07-24T14:59:26.306Z,10.57
2023-07-24T15:01:54.491Z,10.30
2023-07-24T15:04:22.698Z,10.20
2023-07-24T15:06:52.188Z,10.13
2023-07-24T15:09:20.358Z,10.70
2023-07-24T15:11:48.507Z,10.90
2023-07-24T15:14:16.878Z,9.90
2023-07-24T15:16:46.411Z,10.70
2023-07-24T15:19:14.661Z,10.60
2023-07-24T15:21:42.770Z,10.70
2023-07-24T15:24:12.236Z,11.10
2023-07-24T15:26:40.325Z,11.47
2023-07-24T15:29:08.467Z,11.10
2023-07-24T15:31:37.902Z,11.60
2023-07-24T15:34:06.409Z,11.60
2023-07-24T15:36:36.146Z,11.30
2023-07-24T15:39:04.741Z,11.10
2023-07-24T15:41:34.515Z,11.30
2023-07-24T15:44:02.708Z,10.50
2023-07-24T15:46:32.879Z,11.20
2023-07-24T15:49:02.315Z,10.90
2023-07-24T15:51:32.891Z,10.40
2023-07-24T15:54:03.358Z,10.53
2023-07-24T15:56:32.820Z,11.00
2023-07-24T15:59:00.956Z,11.23
2023-07-24T16:01:29.981Z,10.83
2023-07-24T16:03:58.518Z,10.60
2023-07-24T16:06:26.646Z,11.00
2023-07-24T16:08:54.760Z,10.60
2023-07-24T16:11:22.934Z,11.30
2023-07-24T16:13:52.402Z,10.90
2023-07-24T16:16:21.315Z,10.93
2023-07-24T16:18:49.450Z,10.90
2023-07-24T16:21:17.592Z,11.50
2023-07-24T16:23:45.749Z,11.10
2023-07-24T16:26:14.253Z,11.43
2023-07-24T16:28:42.369Z,11.40
2023-07-24T16:31:11.948Z,10.77
2023-07-24T16:33:40.149Z,11.20
2023-07-24T16:36:08.809Z,11.53
2023-07-24T16:38:36.947Z,10.93
2023-07-24T16:41:05.078Z,11.00
2023-07-24T16:43:38.935Z,10.83
2023-07-24T16:46:25.851Z,10.30
2023-07-24T16:48:55.957Z,10.20
2023-07-24T16:51:24.115Z,10.90
2023-07-24T16:53:52.310Z,10.53
2023-07-24T16:56:20.525Z,10.60
2023-07-24T16:58:48.697Z,10.30
2023-07-24T17:01:16.847Z,10.40
2023-07-24T17:03:45.009Z,10.53
2023-07-24T17:06:14.496Z,10.13
2023-07-24T17:08:42.676Z,9.93
2023-07-24T17:11:10.840Z,10.23
2023-07-24T17:13:41.972Z,10.27
2023-07-24T17:16:10.449Z,10.40
2023-07-24T17:18:38.639Z,10.53
2023-07-24T17:21:06.773Z,10.27
2023-07-24T17:23:36.398Z,10.30
2023-07-24T17:26:04.672Z,9.87
2023-07-24T17:28:32.822Z,9.83
2023-07-24T17:31:01.018Z,10.20
2023-07-24T17:33:29.184Z,9.63
2023-07-24T17:35:57.448Z,10.03
2023-07-24T17:38:25.670Z,9.90
2023-07-24T17:40:56.331Z,9.70
2023-07-24T17:43:24.531Z,9.90
2023-07-24T17:45:52.637Z,9.63
2023-07-24T17:48:20.759Z,9.73
2023-07-24T17:50:48.918Z,9.77
2023-07-24T17:53:17.053Z,9.90
2023-07-24T17:55:45.154Z,9.97
2023-07-24T17:58:14.638Z,9.90
2023-07-24T18:00:45.959Z,10.00
2023-07-24T18:03:14.896Z,9.77
2023-07-24T18:05:43.282Z,9.97
2023-07-24T18:08:11.419Z,9.50
2023-07-24T18:10:39.632Z,9.73
2023-07-24T18:13:07.760Z,9.60
2023-07-24T18:15:37.545Z,9.53
2023-07-24T18:18:05.752Z,9.40
2023-07-24T18:20:34.128Z,9.70
2023-07-24T18:23:02.240Z,9.93
2023-07-24T18:25:30.404Z,9.57
2023-07-24T18:27:58.539Z,10.00
2023-07-24T18:30:29.936Z,9.73
2023-07-24T18:33:00.503Z,9.23
2023-07-24T18:35:28.788Z,9.27
2023-07-24T18:37:58.933Z,9.50
2023-07-24T18:40:27.146Z,9.70
2023-07-24T18:42:55.351Z,9.60
2023-07-24T18:45:23.784Z,9.40
2023-07-24T18:47:51.953Z,9.90
2023-07-24T18:50:21.651Z,9.57
2023-07-24T18:52:49.782Z,9.80
2023-07-24T18:55:18.002Z,9.77
2023-07-24T18:57:46.151Z,9.50
2023-07-24T19:00:16.519Z,10.00
2023-07-24T19:02:44.686Z,9.60
2023-07-24T19:05:13.094Z,9.40
2023-07-24T19:07:42.569Z,9.53
2023-07-24T19:10:13.291Z,9.73
2023-07-24T19:12:42.024Z,9.27
2023-07-24T19:15:11.552Z,9.07
2023-07-24T19:17:41.892Z,9.70
2023-07-24T19:20:11.380Z,9.23
2023-07-24T19:22:39.836Z,9.53
2023-07-24T19:25:10.223Z,9.67
2023-07-24T19:27:38.367Z,9.30
2023-07-24T19:30:08.804Z,9.33
2023-07-24T19:32:40.391Z,9.50
2023-07-24T19:35:10.465Z,9.00
2023-07-24T19:37:38.628Z,8.87
2023-07-24T19:40:10.029Z,8.70
2023-07-24T19:42:38.216Z,8.80
2023-07-24T19:45:09.107Z,8.80
2023-07-24T19:47:37.365Z,9.70
2023-07-24T19:50:07.307Z,9.93
2023-07-24T19:52:35.588Z,9.90
2023-07-24T19:55:03.752Z,10.80
2023-07-24T19:57:33.755Z,17.07
2023-07-24T20:00:01.868Z,12.93
2023-07-24T20:02:33.028Z,20.43
2023-07-24T20:05:01.199Z,17.37
2023-07-24T20:07:29.357Z,14.30
2023-07-24T20:09:57.513Z,11.90
2023-07-24T20:12:25.633Z,10.77
2023-07-24T20:14:55.095Z,12.10
2023-07-24T20:17:23.253Z,12.90
2023-07-24T20:19:51.373Z,11.83
2023-07-24T20:22:19.523Z,10.23
2023-07-24T20:24:47.682Z,9.93
2023-07-24T20:27:15.839Z,9.47
2023-07-24T20:29:44.041Z,9.23
2023-07-24T20:32:15.065Z,8.87
2023-07-24T20:34:43.332Z,8.70
2023-07-24T20:37:11.629Z,8.77
2023-07-24T20:39:39.813Z,9.00
2023-07-24T20:42:08.315Z,8.70
2023-07-24T20:44:36.525Z,8.50
2023-07-24T20:47:05.371Z,8.87
2023-07-24T20:49:36.195Z,8.50
2023-07-24T20:52:04.850Z,8.50
2023-07-24T20:54:33.166Z,8.70
2023-07-24T20:57:01.424Z,8.90
2023-07-24T20:59:30.286Z,8.50
2023-07-24T21:01:58.508Z,8.43
2023-07-24T21:04:26.998Z,8.60
2023-07-24T21:06:56.635Z,8.40
2023-07-24T21:09:24.829Z,8.33
2023-07-24T21:11:53.059Z,8.70
2023-07-24T21:14:21.374Z,8.43
2023-07-24T21:16:49.985Z,8.40
2023-07-24T21:19:18.206Z,8.40
2023-07-24T21:21:47.009Z,8.50
2023-07-24T21:24:16.878Z,8.33
2023-07-24T21:26:45.202Z,8.37
2023-07-24T21:29:13.369Z,8.60
2023-07-24T21:31:41.605Z,8.27
2023-07-24T21:34:09.858Z,8.27
2023-07-24T21:36:38.129Z,8.20
2023-07-24T21:39:06.406Z,8.20
2023-07-24T21:41:36.272Z,8.10
2023-07-24T21:44:05.000Z,8.40
2023-07-24T21:46:33.409Z,8.43
2023-07-24T21:49:01.658Z,8.40
2023-07-24T21:51:29.955Z,8.60
2023-07-24T21:53:58.401Z,8.50
2023-07-24T21:56:26.546Z,8.47
2023-07-24T21:58:55.995Z,8.40
2023-07-24T22:01:24.215Z,8.40
2023-07-24T22:03:52.656Z,8.40
2023-07-24T22:06:20.811Z,8.77
2023-07-24T22:08:49.047Z,8.53
2023-07-24T22:11:18.727Z,8.33
2023-07-24T22:13:47.837Z,8.40
2023-07-24T22:16:17.483Z,8.30
2023-07-24T22:18:45.664Z,8.33
2023-07-24T22:21:13.789Z,8.20
2023-07-24T22:23:41.932Z,8.40
2023-07-24T22:26:10.061Z,8.40
2023-07-24T22:28:38.202Z,8.50
2023-07-24T22:31:10.188Z,8.70
2023-07-24T22:33:39.974Z,8.47
2023-07-24T22:36:08.181Z,8.33
2023-07-24T22:38:36.318Z,8.30
2023-07-24T22:41:12.271Z,8.10
2023-07-24T22:43:40.715Z,8.53
2023-07-24T22:46:08.972Z,8.50
2023-07-24T22:48:37.204Z,8.63
2023-07-24T22:51:06.698Z,8.40
2023-07-24T22:53:34.872Z,8.20
2023-07-24T22:56:03.004Z,8.33
2023-07-24T22:58:31.114Z,8.30
2023-07-24T23:00:59.320Z,8.40
2023-07-24T23:03:27.604Z,8.50
2023-07-24T23:05:55.767Z,8.20
2023-07-24T23:08:25.260Z,8.80
2023-07-24T23:10:53.381Z,8.43
2023-07-24T23:13:22.087Z,8.60
2023-07-24T23:15:50.204Z,8.30
2023-07-24T23:18:18.340Z,8.57
2023-07-24T23:20:46.484Z,8.60
2023-07-24T23:23:14.608Z,8.30
2023-07-24T23:25:44.197Z,8.57
2023-07-24T23:28:12.323Z,8.30
2023-07-24T23:30:43.622Z,8.30
2023-07-24T23:33:11.793Z,8.30
2023-07-24T23:35:39.940Z,8.30
2023-07-24T23:38:08.203Z,8.33
2023-07-24T23:40:36.372Z,8.50
2023-07-24T23:43:05.900Z,8.30
2023-07-24T23:45:34.685Z,8.10
2023-07-24T23:48:02.985Z,7.97
2023-07-24T23:50:31.115Z,8.20
2023-07-24T23:52:59.973Z,8.30
2023-07-24T23:55:31.576Z,8.60
2023-07-24T23:57:59.754Z,8.30
